Time;durP1;ratioP1;P1;durP2;ratioP2;P2;SDS_P1;SDS_P2;PMS_P1;PMS_P2;Temp;Humidity;BMP_temperature;BMP_pressure;BME280_temperature;BME280_humidity;BME280_pressure;Samples;Min_cycle;Max_cycle;Signal;HPM_P1;HPM_P2
2024/02/29 00:01:39;;;;;;;36.75;19.20;;;;;;;;;;4975109;28;20075;-90
2024/02/29 00:04:26;;;;;;;30.30;18.75;;;;;;;;;;4989426;28;20026;-91
2024/02/29 00:07:11;;;;;;;35.63;20.88;;;;;;;;;;4992563;28;20490;-90
2024/02/29 00:09:56;;;;;;;31.00;18.27;;;;;;;;;;4984396;28;20519;-89
2024/02/29 01:54:23;;;;;;;28.65;17.48;;;;;;;;;;4721184;26;20138;-89
2024/02/29 01:57:20;;;;;;;32.55;18.75;;;;;;;;;;4931868;29;20072;-88
2024/02/29 02:00:40;;;;;;;;;;;;;;;;;;;;;
2024/02/29 02:58:06;;;;;;;32.88;17.92;;;;;;;;;;5578652;23;20052;-90
2024/02/29 03:01:01;;;;;;;35.03;21.10;;;;;;;;;;4892040;29;20354;-88
2024/02/29 03:03:47;;;;;;;34.45;18.50;;;;;;;;;;4894975;29;20036;-90
2024/02/29 03:06:34;;;;;;;34.47;18.25;;;;;;;;;;4892132;29;20071;-87
2024/02/29 03:09:22;;;;;;;37.08;20.65;;;;;;;;;;4895558;29;20606;-92
2024/02/29 03:12:20;;;;;;;;;;;;;;;;;;;;;
2024/02/29 03:15:11;;;;;;;35.47;19.35;;;;;;;;;;4860382;29;20039;-90
2024/02/29 03:17:56;;;;;;;36.10;18.40;;;;;;;;;;4895514;29;20116;-90
2024/02/29 03:20:41;;;;;;;34.15;20.33;;;;;;;;;;4890832;29;20157;-91
2024/02/29 03:23:29;;;;;;;34.40;19.13;;;;;;;;;;4873575;29;20017;-90
2024/02/29 03:29:39;;;;;;;31.10;17.92;;;;;;;;;;4893340;29;20067;-89
2024/02/29 03:32:25;;;;;;;32.40;17.55;;;;;;;;;;4892182;29;20052;-90
2024/02/29 03:35:10;;;;;;;40.40;21.75;;;;;;;;;;4893793;29;20037;-89
2024/02/29 03:41:28;;;;;;;37.30;20.17;;;;;;;;;;4886352;29;20107;-91
2024/02/29 03:51:26;;;;;;;35.38;18.80;;;;;;;;;;4893413;29;20032;-91
2024/02/29 03:54:11;;;;;;;35.22;19.95;;;;;;;;;;4891293;29;20029;-90
2024/02/29 03:56:56;;;;;;;35.03;19.27;;;;;;;;;;4894721;29;20071;-89
2024/02/29 03:59:47;;;;;;;35.03;20.20;;;;;;;;;;4901298;29;20088;-89
2024/02/29 04:02:32;;;;;;;32.40;18.52;;;;;;;;;;4912059;29;20026;-89
2024/02/29 04:05:17;;;;;;;37.13;21.33;;;;;;;;;;4910060;29;20031;-90
2024/02/29 04:08:10;;;;;;;40.58;20.13;;;;;;;;;;4910317;29;20131;-89
2024/02/29 04:10:56;;;;;;;37.17;20.85;;;;;;;;;;4905842;29;20032;-89
2024/02/29 04:13:41;;;;;;;36.97;20.45;;;;;;;;;;4892840;29;20024;-88
2024/02/29 04:16:26;;;;;;;31.92;18.13;;;;;;;;;;4903952;29;20028;-91
2024/02/29 04:19:12;;;;;;;40.78;22.13;;;;;;;;;;4892615;29;20579;-91
2024/02/29 04:21:57;;;;;;;40.30;20.75;;;;;;;;;;4891793;29;20797;-89
2024/02/29 04:25:16;;;;;;;;;;;;;;;;;;;;;
2024/02/29 04:28:14;;;;;;;46.55;22.65;;;;;;;;;;4860925;29;20422;-90
2024/02/29 04:30:59;;;;;;;34.17;18.70;;;;;;;;;;4911062;29;20194;-88
2024/02/29 04:33:45;;;;;;;36.22;19.58;;;;;;;;;;4892008;29;20032;-90
2024/02/29 04:36:31;;;;;;;38.55;21.70;;;;;;;;;;4898615;29;20096;-89
2024/02/29 04:39:18;;;;;;;39.13;20.17;;;;;;;;;;4897356;29;20040;-90
2024/02/29 04:42:05;;;;;;;40.25;20.40;;;;;;;;;;4909003;29;20050;-89
2024/02/29 04:44:54;;;;;;;39.42;21.00;;;;;;;;;;4904098;29;20516;-91
2024/02/29 04:47:52;;;;;;;;;;;;;;;;;;;;;
2024/02/29 04:57:46;;;;;;;;;;;;;;;;;;;;;
2024/02/29 05:00:53;;;;;;;;;;;;;;;;;;;;;
2024/02/29 05:03:46;;;;;;;38.92;20.85;;;;;;;;;;4909257;29;20028;-92
2024/02/29 05:10:08;;;;;;;38.53;20.50;;;;;;;;;;4886310;29;20040;-89
2024/02/29 05:12:59;;;;;;;40.35;20.67;;;;;;;;;;4889421;29;20075;-90
2024/02/29 05:15:55;;;;;;;39.58;22.08;;;;;;;;;;4920337;29;20031;-92
2024/02/29 05:18:50;;;;;;;40.80;21.98;;;;;;;;;;4901645;29;21395;-90
2024/02/29 05:21:36;;;;;;;44.17;21.40;;;;;;;;;;4902555;29;20171;-91
2024/02/29 05:24:21;;;;;;;44.78;23.00;;;;;;;;;;4907172;29;20108;-90
2024/02/29 05:27:06;;;;;;;42.83;21.92;;;;;;;;;;4892566;29;20472;-91
2024/02/29 05:29:52;;;;;;;42.92;23.25;;;;;;;;;;4904856;29;20467;-88
2024/02/29 05:32:37;;;;;;;41.00;21.67;;;;;;;;;;4909928;29;20509;-88
2024/02/29 05:35:25;;;;;;;41.17;21.65;;;;;;;;;;4909401;29;20056;-87
2024/02/29 05:38:10;;;;;;;41.65;22.60;;;;;;;;;;4903762;29;20036;-90
2024/02/29 05:40:57;;;;;;;39.72;20.42;;;;;;;;;;4907157;29;20036;-89
2024/02/29 05:43:43;;;;;;;37.55;20.98;;;;;;;;;;4891077;29;20072;-89
2024/02/29 05:46:29;;;;;;;39.95;21.73;;;;;;;;;;4906923;29;20062;-89
2024/02/29 05:56:41;;;;;;;39.45;21.20;;;;;;;;;;4853015;29;20052;-92
2024/02/29 06:03:39;;;;;;;41.33;20.73;;;;;;;;;;4748935;29;20035;-90
2024/02/29 06:06:24;;;;;;;41.13;21.88;;;;;;;;;;4774252;29;20037;-88
2024/02/29 06:09:15;;;;;;;42.05;20.73;;;;;;;;;;4803705;29;20046;-89
2024/02/29 06:12:01;;;;;;;40.08;22.40;;;;;;;;;;4856589;23;20055;-88
2024/02/29 06:14:47;;;;;;;41.72;21.98;;;;;;;;;;4857800;29;20515;-88
2024/02/29 06:17:33;;;;;;;36.20;20.90;;;;;;;;;;4865709;29;20080;-86
2024/02/29 06:20:18;;;;;;;41.05;22.17;;;;;;;;;;4863732;29;20039;-87
2024/02/29 06:23:03;;;;;;;40.88;21.65;;;;;;;;;;4861645;29;20032;-88
2024/02/29 06:25:52;;;;;;;41.70;21.85;;;;;;;;;;4861950;29;20145;-92
2024/02/29 06:28:37;;;;;;;42.15;21.58;;;;;;;;;;4869895;29;20025;-86
2024/02/29 06:31:25;;;;;;;42.15;22.60;;;;;;;;;;4864022;29;20434;-89
2024/02/29 06:37:49;;;;;;;40.72;21.50;;;;;;;;;;4822070;29;20056;-88
2024/02/29 09:49:47;;;;;;;32.00;20.50;;;;;;;;;;4892079;29;20512;-89
2024/02/29 09:52:34;;;;;;;33.20;21.45;;;;;;;;;;4895084;29;20573;-88
2024/02/29 09:55:21;;;;;;;26.65;18.85;;;;;;;;;;4937138;29;20063;-89
2024/02/29 09:58:17;;;;;;;28.75;18.67;;;;;;;;;;4936608;29;20023;-87
2024/02/29 10:01:03;;;;;;;31.92;21.08;;;;;;;;;;4936826;29;20051;-87
2024/02/29 10:04:34;;;;;;;28.33;19.65;;;;;;;;;;4873755;29;20025;-88
2024/02/29 10:07:04;;;;;;;28.08;20.08;;;;;;;;;;4879963;29;20038;-85
2024/02/29 10:09:49;;;;;;;30.83;20.67;;;;;;;;;;4936347;29;20078;-87
2024/02/29 10:12:37;;;;;;;30.08;20.05;;;;;;;;;;4935490;29;20102;-88
2024/02/29 10:15:25;;;;;;;30.45;20.50;;;;;;;;;;4936692;29;20077;-88
2024/02/29 10:18:11;;;;;;;29.67;20.67;;;;;;;;;;4937006;29;20035;-87
2024/02/29 10:20:58;;;;;;;32.72;22.05;;;;;;;;;;4936022;29;20259;-87
2024/02/29 10:23:46;;;;;;;31.80;21.70;;;;;;;;;;4917317;29;20023;-87
2024/02/29 10:26:35;;;;;;;31.23;21.17;;;;;;;;;;4924416;29;20400;-88
2024/02/29 10:29:20;;;;;;;30.23;20.08;;;;;;;;;;4937083;29;20417;-87
2024/02/29 10:32:05;;;;;;;32.22;20.40;;;;;;;;;;4935483;29;20038;-87
2024/02/29 10:34:51;;;;;;;28.42;20.17;;;;;;;;;;4923168;29;20034;-86
2024/02/29 10:37:39;;;;;;;32.08;21.83;;;;;;;;;;4937002;29;20035;-86
2024/02/29 10:40:27;;;;;;;32.60;20.75;;;;;;;;;;4938738;29;20023;-87
2024/02/29 10:43:12;;;;;;;28.67;20.13;;;;;;;;;;4933100;28;20031;-87
2024/02/29 10:49:23;;;;;;;30.15;18.27;;;;;;;;;;4916493;29;20038;-90
2024/02/29 10:52:19;;;;;;;27.35;19.10;;;;;;;;;;4911535;29;20035;-90
2024/02/29 10:55:30;;;;;;;28.05;19.63;;;;;;;;;;4917905;29;20032;-90
2024/02/29 10:58:33;;;;;;;;;;;;;;;;;;;;;
2024/02/29 11:05:31;;;;;;;28.90;19.48;;;;;;;;;;4855538;29;20510;-89
2024/02/29 11:08:32;;;;;;;30.77;20.98;;;;;;;;;;4858622;29;20052;-85
2024/02/29 11:14:30;;;;;;;30.55;19.70;;;;;;;;;;5937855;23;20063;-85
2024/02/29 11:17:49;;;;;;;32.47;19.38;;;;;;;;;;4910122;29;20455;-89
2024/02/29 11:21:04;;;;;;;27.95;18.45;;;;;;;;;;4926482;29;20031;-92
2024/02/29 11:23:49;;;;;;;28.27;17.80;;;;;;;;;;4934355;29;20016;-84
2024/02/29 11:26:37;;;;;;;26.80;17.63;;;;;;;;;;4935118;29;20027;-84
2024/02/29 11:29:24;;;;;;;26.50;17.73;;;;;;;;;;4935089;29;20023;-90
2024/02/29 11:32:20;;;;;;;25.08;17.58;;;;;;;;;;4919453;29;20059;-92
2024/02/29 11:35:06;;;;;;;25.40;17.70;;;;;;;;;;4904711;29;20031;-89
2024/02/29 11:38:01;;;;;;;24.65;14.70;;;;;;;;;;4917667;29;20024;-92
2024/02/29 11:42:01;;;;;;;22.98;15.50;;;;;;;;;;4912234;29;20028;-91
2024/02/29 11:44:47;;;;;;;24.08;17.13;;;;;;;;;;4890184;29;20032;-87
2024/02/29 11:47:32;;;;;;;26.13;17.13;;;;;;;;;;4894177;29;20055;-84
2024/02/29 11:50:18;;;;;;;22.67;15.93;;;;;;;;;;4910851;29;20035;-74
2024/02/29 11:53:03;;;;;;;26.00;17.38;;;;;;;;;;4911083;29;20134;-74
2024/02/29 11:55:48;;;;;;;18.50;14.45;;;;;;;;;;4906628;29;20062;-75
2024/02/29 11:58:34;;;;;;;19.80;13.20;;;;;;;;;;4912559;29;20110;-76
2024/02/29 12:01:20;;;;;;;21.25;14.43;;;;;;;;;;4914477;29;20019;-76
2024/02/29 12:04:05;;;;;;;20.63;14.77;;;;;;;;;;4915792;29;20026;-76
2024/02/29 12:06:50;;;;;;;22.05;15.18;;;;;;;;;;4913347;29;20032;-75
2024/02/29 12:09:36;;;;;;;18.30;12.70;;;;;;;;;;4909968;29;20035;-77
2024/02/29 12:12:21;;;;;;;21.67;14.13;;;;;;;;;;4914542;29;20077;-76
2024/02/29 12:15:07;;;;;;;17.15;12.50;;;;;;;;;;4907776;29;20053;-89
2024/02/29 12:17:52;;;;;;;18.23;12.98;;;;;;;;;;4928634;29;20035;-84
2024/02/29 12:20:38;;;;;;;19.15;13.32;;;;;;;;;;4902625;29;20051;-85
2024/02/29 12:23:23;;;;;;;20.75;13.60;;;;;;;;;;4914643;29;20027;-84
2024/02/29 12:26:09;;;;;;;20.10;13.30;;;;;;;;;;4915220;29;20023;-86
2024/02/29 12:28:54;;;;;;;19.92;13.05;;;;;;;;;;4901772;29;20160;-86
2024/02/29 12:31:40;;;;;;;16.58;11.57;;;;;;;;;;4906727;29;20028;-85
2024/02/29 12:34:26;;;;;;;19.77;12.27;;;;;;;;;;4900886;29;20534;-86
2024/02/29 12:37:14;;;;;;;22.75;13.48;;;;;;;;;;4913564;29;20532;-84
2024/02/29 12:40:01;;;;;;;16.35;11.38;;;;;;;;;;4915394;29;20114;-84
2024/02/29 12:42:47;;;;;;;16.35;11.13;;;;;;;;;;4915368;29;20127;-85
2024/02/29 12:45:33;;;;;;;18.23;11.20;;;;;;;;;;4915210;29;20083;-84
2024/02/29 12:48:18;;;;;;;18.48;10.60;;;;;;;;;;4915641;29;20101;-84
2024/02/29 12:51:08;;;;;;;17.63;11.35;;;;;;;;;;4903177;29;20032;-92
2024/02/29 12:53:54;;;;;;;19.83;10.32;;;;;;;;;;4915345;29;20491;-82
2024/02/29 12:56:39;;;;;;;17.67;10.50;;;;;;;;;;4913659;29;20505;-83
2024/02/29 12:59:25;;;;;;;18.23;12.27;;;;;;;;;;4908833;29;20039;-84
2024/02/29 13:02:10;;;;;;;20.02;10.82;;;;;;;;;;4899915;29;20029;-83
2024/02/29 13:04:55;;;;;;;18.05;11.23;;;;;;;;;;4915143;29;20031;-85
2024/02/29 13:07:41;;;;;;;15.02;9.85;;;;;;;;;;4928567;29;20067;-85
2024/02/29 13:10:26;;;;;;;13.00;8.27;;;;;;;;;;4914454;29;20491;-87
2024/02/29 13:13:12;;;;;;;12.75;8.60;;;;;;;;;;4912006;29;20036;-83
2024/02/29 13:15:57;;;;;;;12.00;7.65;;;;;;;;;;4916260;29;20523;-87
2024/02/29 13:25:31;;;;;;;14.02;9.15;;;;;;;;;;4835666;29;20165;-94
2024/02/29 13:45:35;;;;;;;15.43;10.25;;;;;;;;;;4895162;29;20027;-91
2024/02/29 14:11:54;;;;;;;15.20;9.48;;;;;;;;;;4875597;29;20024;-88
2024/02/29 14:14:39;;;;;;;14.15;8.98;;;;;;;;;;4904512;29;20040;-87
2024/02/29 14:17:31;;;;;;;14.15;9.05;;;;;;;;;;4909002;29;20435;-91
2024/02/29 14:20:21;;;;;;;17.15;9.15;;;;;;;;;;4931627;29;20399;-91
2024/02/29 14:30:08;;;;;;;15.15;9.60;;;;;;;;;;4924199;29;20389;-93
2024/02/29 14:37:16;;;;;;;17.30;10.25;;;;;;;;;;4861136;29;20029;-88
2024/02/29 14:40:42;;;;;;;18.88;11.05;;;;;;;;;;4866630;29;20488;-89
2024/02/29 14:46:54;;;;;;;16.60;10.57;;;;;;;;;;4907166;29;20087;-91
2024/02/29 15:03:21;;;;;;;20.88;12.40;;;;;;;;;;4843591;29;20037;-82
2024/02/29 15:06:08;;;;;;;18.95;11.95;;;;;;;;;;4897056;29;20059;-84
2024/02/29 15:08:54;;;;;;;21.00;12.25;;;;;;;;;;4911289;29;20087;-85
2024/02/29 15:11:41;;;;;;;20.17;11.68;;;;;;;;;;4911663;29;20450;-84
2024/02/29 15:14:27;;;;;;;21.73;12.98;;;;;;;;;;4931006;29;20126;-84
2024/02/29 15:17:12;;;;;;;23.00;13.48;;;;;;;;;;4911697;29;20051;-85
2024/02/29 15:19:57;;;;;;;20.73;13.07;;;;;;;;;;4913167;29;20530;-84
2024/02/29 15:22:43;;;;;;;20.63;13.25;;;;;;;;;;4905315;29;20067;-89
2024/02/29 15:25:28;;;;;;;20.33;12.95;;;;;;;;;;4930364;29;20020;-88
2024/02/29 15:28:13;;;;;;;19.48;12.48;;;;;;;;;;4914500;29;20046;-87
2024/02/29 15:30:59;;;;;;;21.15;12.40;;;;;;;;;;4911475;29;20044;-88
2024/02/29 15:33:46;;;;;;;20.48;12.93;;;;;;;;;;4886259;29;20040;-91
2024/02/29 15:36:32;;;;;;;22.40;13.27;;;;;;;;;;4885553;29;20043;-85
2024/02/29 15:39:17;;;;;;;21.05;13.13;;;;;;;;;;4898085;29;20034;-87
2024/02/29 15:42:05;;;;;;;22.13;12.80;;;;;;;;;;4920568;29;20035;-89
2024/02/29 15:44:52;;;;;;;20.13;12.10;;;;;;;;;;4937052;29;20072;-92
2024/02/29 15:58:30;;;;;;;;;;;;;;;;;;;;;
2024/02/29 16:01:16;;;;;;;20.80;13.38;;;;;;;;;;4882197;29;20071;-86
2024/02/29 16:04:24;;;;;;;22.02;14.57;;;;;;;;;;4917525;29;20075;-94
2024/02/29 16:07:10;;;;;;;19.92;12.95;;;;;;;;;;4842317;29;20082;-87
2024/02/29 16:09:55;;;;;;;19.70;11.35;;;;;;;;;;4916682;29;20036;-86
2024/02/29 16:12:41;;;;;;;20.63;12.57;;;;;;;;;;4936343;29;20019;-90
2024/02/29 16:15:26;;;;;;;17.65;10.98;;;;;;;;;;4940362;29;20058;-88
2024/02/29 16:18:11;;;;;;;20.13;11.32;;;;;;;;;;4936675;29;20020;-87
2024/02/29 16:20:57;;;;;;;16.77;10.43;;;;;;;;;;4926523;29;20046;-85
2024/02/29 16:23:43;;;;;;;20.33;11.55;;;;;;;;;;4918888;29;20043;-85
2024/02/29 16:26:29;;;;;;;18.58;11.60;;;;;;;;;;4911960;29;20024;-86
2024/02/29 16:29:14;;;;;;;26.65;16.55;;;;;;;;;;4916863;29;20598;-92
2024/02/29 16:32:01;;;;;;;31.73;17.92;;;;;;;;;;4917812;29;20038;-86
2024/02/29 16:34:47;;;;;;;26.25;17.13;;;;;;;;;;4906351;29;20031;-91
2024/02/29 16:37:33;;;;;;;25.67;16.20;;;;;;;;;;4932884;29;20543;-87
2024/02/29 16:40:18;;;;;;;28.38;17.33;;;;;;;;;;4908028;29;20027;-88
2024/02/29 16:43:14;;;;;;;27.02;17.35;;;;;;;;;;4919166;29;20392;-91
2024/02/29 16:46:00;;;;;;;24.35;16.15;;;;;;;;;;4915527;29;20032;-90
2024/02/29 16:48:45;;;;;;;27.02;16.55;;;;;;;;;;4913503;29;20428;-85
2024/02/29 16:51:30;;;;;;;27.80;16.02;;;;;;;;;;4900612;29;20420;-89
2024/02/29 16:54:15;;;;;;;27.45;17.38;;;;;;;;;;4915960;29;20039;-88
2024/02/29 16:57:01;;;;;;;28.17;17.98;;;;;;;;;;4907667;29;20484;-83
2024/02/29 16:59:46;;;;;;;28.50;18.10;;;;;;;;;;4913767;29;20369;-82
2024/02/29 17:02:32;;;;;;;29.42;17.33;;;;;;;;;;4916375;29;20028;-84
2024/02/29 17:05:18;;;;;;;27.17;16.38;;;;;;;;;;4915436;29;20427;-86
2024/02/29 17:11:24;;;;;;;25.83;16.90;;;;;;;;;;4907587;29;20074;-85
2024/02/29 17:14:10;;;;;;;24.70;14.80;;;;;;;;;;4926524;29;20028;-85
2024/02/29 17:16:55;;;;;;;29.20;16.40;;;;;;;;;;4927348;29;20062;-83
2024/02/29 17:19:41;;;;;;;26.52;15.88;;;;;;;;;;4904902;29;20209;-83
2024/02/29 17:22:29;;;;;;;26.65;15.90;;;;;;;;;;4918498;29;20416;-86
2024/02/29 17:25:15;;;;;;;25.60;15.80;;;;;;;;;;4928424;29;20032;-83
2024/02/29 17:28:00;;;;;;;25.80;15.70;;;;;;;;;;4894247;29;20096;-85
2024/02/29 17:30:45;;;;;;;25.63;17.23;;;;;;;;;;4896532;29;20051;-84
2024/02/29 17:33:31;;;;;;;24.77;16.45;;;;;;;;;;4916970;29;20155;-84
2024/02/29 17:36:17;;;;;;;26.90;16.83;;;;;;;;;;4910506;29;20023;-83
2024/02/29 17:39:03;;;;;;;29.23;16.92;;;;;;;;;;4914778;29;20042;-83
2024/02/29 17:41:48;;;;;;;26.00;17.23;;;;;;;;;;4914495;29;20024;-83
2024/02/29 17:44:33;;;;;;;28.85;16.00;;;;;;;;;;4902389;29;20027;-84
2024/02/29 17:47:19;;;;;;;25.75;17.20;;;;;;;;;;4927935;29;20138;-85
2024/02/29 17:50:05;;;;;;;26.55;16.48;;;;;;;;;;4913476;29;20015;-84
2024/02/29 17:52:50;;;;;;;27.98;16.33;;;;;;;;;;4910438;29;20035;-83
2024/02/29 17:55:36;;;;;;;29.50;16.77;;;;;;;;;;4930003;29;20028;-83
2024/02/29 17:58:22;;;;;;;30.58;15.23;;;;;;;;;;4918283;29;20055;-83
2024/02/29 18:01:07;;;;;;;28.17;17.42;;;;;;;;;;4916181;29;20232;-84
2024/02/29 18:03:53;;;;;;;24.58;14.32;;;;;;;;;;4935471;29;20027;-84
2024/02/29 18:06:38;;;;;;;26.33;14.70;;;;;;;;;;4954186;29;20375;-85
2024/02/29 18:09:23;;;;;;;25.60;15.10;;;;;;;;;;4918422;29;20020;-85
2024/02/29 18:12:09;;;;;;;27.63;15.88;;;;;;;;;;4908777;29;20032;-85
2024/02/29 18:14:56;;;;;;;30.70;18.23;;;;;;;;;;4929673;29;20044;-84
2024/02/29 18:17:43;;;;;;;31.27;15.63;;;;;;;;;;4906794;29;20028;-86
2024/02/29 18:20:28;;;;;;;27.15;15.35;;;;;;;;;;4917469;29;20046;-87
2024/02/29 18:23:14;;;;;;;28.88;17.75;;;;;;;;;;4930407;29;20035;-84
2024/02/29 18:26:01;;;;;;;29.65;15.30;;;;;;;;;;4912379;29;20064;-84
2024/02/29 18:28:46;;;;;;;25.65;15.77;;;;;;;;;;4892951;29;20031;-85
2024/02/29 18:31:32;;;;;;;25.48;15.98;;;;;;;;;;4901277;29;20423;-86
2024/02/29 18:34:17;;;;;;;25.08;14.35;;;;;;;;;;4923062;29;20038;-86
2024/02/29 18:37:05;;;;;;;28.33;16.55;;;;;;;;;;4900987;29;20047;-86
2024/02/29 18:39:51;;;;;;;23.90;15.88;;;;;;;;;;4905081;29;20044;-86
2024/02/29 18:42:36;;;;;;;33.17;18.27;;;;;;;;;;4930543;29;20027;-85
2024/02/29 18:45:23;;;;;;;26.67;16.88;;;;;;;;;;4927499;29;20102;-86
2024/02/29 18:48:08;;;;;;;28.23;16.08;;;;;;;;;;4917062;29;20035;-86
2024/02/29 18:50:54;;;;;;;26.98;15.65;;;;;;;;;;4917523;29;20055;-87
2024/02/29 18:53:39;;;;;;;27.20;15.82;;;;;;;;;;4913644;29;20027;-87
2024/02/29 18:56:24;;;;;;;30.80;16.50;;;;;;;;;;4916608;29;20079;-86
2024/02/29 18:59:12;;;;;;;28.17;17.23;;;;;;;;;;4926045;29;20431;-88
2024/02/29 19:01:57;;;;;;;28.73;17.05;;;;;;;;;;4929734;29;20023;-84
2024/02/29 19:04:43;;;;;;;28.42;16.50;;;;;;;;;;4917940;29;20070;-86
2024/02/29 19:07:28;;;;;;;26.02;16.90;;;;;;;;;;4916727;29;20335;-85
2024/02/29 19:10:16;;;;;;;27.85;16.38;;;;;;;;;;4916922;29;20032;-83
2024/02/29 19:13:01;;;;;;;34.25;16.77;;;;;;;;;;4915914;29;20534;-85
2024/02/29 19:15:48;;;;;;;24.95;16.33;;;;;;;;;;4896088;29;20049;-85
2024/02/29 19:18:36;;;;;;;31.27;17.10;;;;;;;;;;4905281;29;20542;-85
2024/02/29 19:21:21;;;;;;;28.95;16.92;;;;;;;;;;4893857;29;20031;-85
2024/02/29 19:24:09;;;;;;;30.67;17.88;;;;;;;;;;4922089;29;20024;-85
2024/02/29 19:26:55;;;;;;;30.08;16.30;;;;;;;;;;4905208;29;20021;-84
2024/02/29 19:29:40;;;;;;;29.73;17.52;;;;;;;;;;4892218;29;20028;-85
2024/02/29 19:32:26;;;;;;;27.48;16.27;;;;;;;;;;4909105;29;20484;-85
2024/02/29 19:35:11;;;;;;;29.35;15.45;;;;;;;;;;4876923;29;20087;-85
2024/02/29 19:37:57;;;;;;;29.25;17.13;;;;;;;;;;4889965;29;20033;-85
2024/02/29 19:40:42;;;;;;;31.90;18.33;;;;;;;;;;4891622;29;20445;-85
2024/02/29 19:43:28;;;;;;;28.00;16.50;;;;;;;;;;4903677;29;20060;-85
2024/02/29 19:46:13;;;;;;;28.35;16.73;;;;;;;;;;4886153;29;20029;-85
2024/02/29 19:48:59;;;;;;;32.30;18.90;;;;;;;;;;4873259;29;20072;-85
2024/02/29 19:51:44;;;;;;;25.80;15.73;;;;;;;;;;4872848;29;20104;-85
2024/02/29 19:54:30;;;;;;;29.02;16.63;;;;;;;;;;4890986;29;20055;-86
2024/02/29 19:57:15;;;;;;;26.38;15.77;;;;;;;;;;4889034;29;20127;-85
2024/02/29 20:00:03;;;;;;;29.67;15.88;;;;;;;;;;4890833;29;20088;-86
2024/02/29 20:02:51;;;;;;;28.33;17.27;;;;;;;;;;4899209;29;20115;-87
2024/02/29 20:05:40;;;;;;;32.10;17.48;;;;;;;;;;4884533;29;20076;-87
2024/02/29 20:08:28;;;;;;;28.85;16.58;;;;;;;;;;4882588;29;20562;-85
2024/02/29 20:11:14;;;;;;;29.10;15.93;;;;;;;;;;4897796;29;20058;-87
2024/02/29 20:13:59;;;;;;;27.92;15.95;;;;;;;;;;4899440;29;20096;-86
2024/02/29 20:16:44;;;;;;;27.95;15.63;;;;;;;;;;4922357;29;20024;-86
2024/02/29 20:19:30;;;;;;;28.05;16.10;;;;;;;;;;4919476;29;20032;-86
2024/02/29 20:22:15;;;;;;;33.65;16.90;;;;;;;;;;4901881;29;20027;-86
2024/02/29 20:25:00;;;;;;;29.48;17.35;;;;;;;;;;4915980;29;20020;-88
2024/02/29 20:27:52;;;;;;;30.23;17.02;;;;;;;;;;4928371;29;20031;-85
2024/02/29 20:30:40;;;;;;;29.98;16.85;;;;;;;;;;4914349;29;20028;-85
2024/02/29 20:33:28;;;;;;;32.17;18.63;;;;;;;;;;4916035;29;20035;-86
2024/02/29 20:36:14;;;;;;;31.02;16.48;;;;;;;;;;4916267;29;20034;-85
2024/02/29 20:38:59;;;;;;;28.75;17.50;;;;;;;;;;4913668;29;20083;-85
2024/02/29 20:41:45;;;;;;;30.27;18.05;;;;;;;;;;4920970;29;20036;-85
2024/02/29 20:44:30;;;;;;;28.10;15.80;;;;;;;;;;4914313;29;20028;-87
2024/02/29 20:47:15;;;;;;;28.55;15.70;;;;;;;;;;4915287;29;20035;-85
2024/02/29 20:50:01;;;;;;;30.92;17.15;;;;;;;;;;4896660;29;20020;-87
2024/02/29 20:52:49;;;;;;;31.38;17.55;;;;;;;;;;4914071;29;20805;-87
2024/02/29 20:55:35;;;;;;;30.05;15.93;;;;;;;;;;4900173;29;20094;-87
2024/02/29 20:58:20;;;;;;;26.83;17.83;;;;;;;;;;4914556;29;20128;-88
2024/02/29 21:01:05;;;;;;;35.83;20.05;;;;;;;;;;4913992;29;20553;-85
2024/02/29 21:03:51;;;;;;;29.25;17.08;;;;;;;;;;4914370;29;20359;-85
2024/02/29 21:06:36;;;;;;;28.73;16.60;;;;;;;;;;4930228;29;20078;-86
2024/02/29 21:09:22;;;;;;;30.13;17.10;;;;;;;;;;4926708;29;20027;-86
2024/02/29 21:12:07;;;;;;;29.38;17.75;;;;;;;;;;4916841;29;20032;-85
2024/02/29 21:14:52;;;;;;;30.88;17.88;;;;;;;;;;4913883;29;20059;-85
2024/02/29 21:17:38;;;;;;;31.30;19.33;;;;;;;;;;4914258;29;20032;-86
2024/02/29 21:20:23;;;;;;;36.80;19.73;;;;;;;;;;4913865;29;20108;-85
2024/02/29 21:23:09;;;;;;;32.50;17.70;;;;;;;;;;4912807;29;20031;-85
2024/02/29 21:25:54;;;;;;;32.22;17.77;;;;;;;;;;4927063;29;20036;-85
2024/02/29 21:28:40;;;;;;;27.40;17.00;;;;;;;;;;4914502;29;20055;-88
2024/02/29 21:31:25;;;;;;;31.73;18.15;;;;;;;;;;4918824;29;20039;-88
2024/02/29 21:34:14;;;;;;;28.15;17.10;;;;;;;;;;4915229;29;20435;-87
2024/02/29 21:36:59;;;;;;;26.10;16.63;;;;;;;;;;4914850;29;20517;-89
2024/02/29 21:39:44;;;;;;;30.70;18.52;;;;;;;;;;4899976;29;20099;-89
2024/02/29 21:42:30;;;;;;;31.23;18.10;;;;;;;;;;4895987;29;20397;-89
2024/02/29 21:59:20;;;;;;;32.78;18.52;;;;;;;;;;4778556;30;20108;-90
2024/02/29 22:02:06;;;;;;;33.00;18.73;;;;;;;;;;4833919;29;20035;-90
2024/02/29 22:04:51;;;;;;;28.60;17.48;;;;;;;;;;4897505;29;20039;-89
2024/02/29 22:07:39;;;;;;;35.28;20.95;;;;;;;;;;4929441;29;20023;-90
2024/02/29 22:10:25;;;;;;;32.20;19.23;;;;;;;;;;4915067;29;20378;-89
2024/02/29 22:13:52;;;;;;;29.83;17.73;;;;;;;;;;4914960;29;20092;-90
2024/02/29 22:16:39;;;;;;;29.27;16.52;;;;;;;;;;4897100;29;20072;-87
2024/02/29 22:19:27;;;;;;;33.20;18.60;;;;;;;;;;4913641;29;20471;-88
2024/02/29 22:22:13;;;;;;;29.85;17.52;;;;;;;;;;4912341;29;20406;-87
2024/02/29 22:24:58;;;;;;;29.60;17.45;;;;;;;;;;4927628;29;20031;-87
2024/02/29 22:27:43;;;;;;;30.23;17.30;;;;;;;;;;4914136;29;20027;-87
2024/02/29 22:30:29;;;;;;;27.45;16.98;;;;;;;;;;4912871;29;20092;-87
2024/02/29 22:33:14;;;;;;;33.65;18.73;;;;;;;;;;4915381;29;20027;-87
2024/02/29 22:36:00;;;;;;;30.60;17.52;;;;;;;;;;4915241;29;20063;-87
2024/02/29 22:38:48;;;;;;;27.30;16.98;;;;;;;;;;4917477;29;20027;-87
2024/02/29 22:41:38;;;;;;;34.78;18.73;;;;;;;;;;4917684;29;20027;-87
2024/02/29 22:44:25;;;;;;;28.40;16.35;;;;;;;;;;4917553;29;20479;-87
2024/02/29 22:47:10;;;;;;;28.55;16.92;;;;;;;;;;4916902;29;20035;-86
2024/02/29 22:49:55;;;;;;;31.35;17.98;;;;;;;;;;4905403;29;20050;-87
2024/02/29 22:52:43;;;;;;;32.17;17.75;;;;;;;;;;4898722;29;20031;-87
2024/02/29 22:55:32;;;;;;;26.98;17.25;;;;;;;;;;4917411;29;20383;-87
2024/02/29 22:58:18;;;;;;;32.15;17.85;;;;;;;;;;4914986;29;20031;-87
2024/02/29 23:01:03;;;;;;;30.17;18.20;;;;;;;;;;4906838;29;20496;-87
2024/02/29 23:03:49;;;;;;;31.75;17.77;;;;;;;;;;4901205;29;20027;-87
2024/02/29 23:06:34;;;;;;;29.83;17.58;;;;;;;;;;4916564;29;20487;-87
2024/02/29 23:09:20;;;;;;;31.63;17.05;;;;;;;;;;4913962;29;20028;-88
2024/02/29 23:12:05;;;;;;;29.58;17.25;;;;;;;;;;4930229;29;20394;-87
2024/02/29 23:14:51;;;;;;;30.15;17.50;;;;;;;;;;4917273;29;20130;-87
2024/02/29 23:17:36;;;;;;;30.73;18.25;;;;;;;;;;4929900;29;20031;-87
2024/02/29 23:20:22;;;;;;;27.50;15.73;;;;;;;;;;4930876;29;20511;-87
2024/02/29 23:23:08;;;;;;;26.63;15.40;;;;;;;;;;4898011;29;20028;-88
2024/02/29 23:25:53;;;;;;;29.48;17.70;;;;;;;;;;4907355;29;20679;-87
2024/02/29 23:28:38;;;;;;;29.13;17.70;;;;;;;;;;4911918;29;20495;-87
2024/02/29 23:31:23;;;;;;;32.58;17.83;;;;;;;;;;4900707;29;20432;-87
2024/02/29 23:34:09;;;;;;;29.30;17.33;;;;;;;;;;4929967;29;20019;-87
2024/02/29 23:36:54;;;;;;;34.13;18.85;;;;;;;;;;4916859;29;20439;-87
2024/02/29 23:39:39;;;;;;;34.03;18.40;;;;;;;;;;4916485;29;20035;-87
2024/02/29 23:42:24;;;;;;;36.10;18.48;;;;;;;;;;4919805;29;20028;-88
2024/02/29 23:45:10;;;;;;;31.27;17.75;;;;;;;;;;4909100;29;20031;-87
2024/02/29 23:47:55;;;;;;;30.83;18.08;;;;;;;;;;4925454;29;20035;-88
2024/02/29 23:50:41;;;;;;;27.75;16.58;;;;;;;;;;4903484;29;20384;-88
2024/02/29 23:53:26;;;;;;;29.88;17.75;;;;;;;;;;4902900;29;20047;-88
2024/02/29 23:56:11;;;;;;;31.00;17.70;;;;;;;;;;4901565;29;20031;-88
2024/02/29 23:58:56;;;;;;;28.73;16.67;;;;;;;;;;4926327;29;20495;-88
